Agudos, Brazil
Current Conditions -  °F | °C
As of 6:00 PM on Wednesday 28 Jan 2015 (Local Time) from SBBU Reporting Station
Clear Clear  
Wind Chill: 88°   Ceiling: Unl
Heat Index: 96°   Visibility: 6mi
Dew Point: 73°   Wind: 5mph
Humidity: 62%   Direction: 350°N
Pressure: 29.88"   Gusts: NA
Location:  22.47°S, 49°W
Report Text: SBBU 282000Z 35004KT CAVOK 31/23 Q1012
Loading
Personal Weather Stations






























Interactive Weather Map New forecast layout! Learn more

10-Day Weather Forecast

Advertisements
Track Severe Weather on mobile